Time;durP1;ratioP1;P1;durP2;ratioP2;P2;SDS_P1;SDS_P2;PMS_P1;PMS_P2;Temp;Humidity;BMP_temperature;BMP_pressure;BME280_temperature;BME280_humidity;BME280_pressure;Samples;Min_cycle;Max_cycle;Signal;HPM_P1;HPM_P2
2022/08/03 00:02:18;;;;;;;7.18;4.07;;;;;;;22.33;77.01;100269.72;5075899;28;20047;-75
2022/08/03 00:04:51;;;;;;;5.38;3.90;;;;;;;22.35;77.18;100268.53;5074586;28;20458;-73
2022/08/03 00:07:21;;;;;;;6.05;3.40;;;;;;;22.42;74.50;100266.00;5075482;28;20493;-73
2022/08/03 00:09:49;;;;;;;7.05;3.63;;;;;;;22.33;74.71;100264.28;5075697;28;20048;-72
2022/08/03 00:12:17;;;;;;;4.80;3.30;;;;;;;22.34;73.72;100266.00;5075624;28;20040;-72
2022/08/03 00:14:45;;;;;;;6.72;3.53;;;;;;;22.30;74.56;100272.78;5074373;28;20098;-72
2022/08/03 00:17:14;;;;;;;5.60;3.13;;;;;;;22.23;74.88;100265.31;5075182;28;20465;-72
2022/08/03 00:19:42;;;;;;;5.80;3.20;;;;;;;22.27;74.49;100272.09;5075459;28;20049;-74
2022/08/03 00:22:10;;;;;;;7.68;3.13;;;;;;;22.21;74.95;100267.34;5075140;28;20048;-74
2022/08/03 00:24:39;;;;;;;7.22;3.28;;;;;;;22.11;75.90;100272.06;5074235;28;20147;-70
2022/08/03 00:27:08;;;;;;;5.28;3.33;;;;;;;22.10;77.97;100277.66;5075421;28;20040;-71
2022/08/03 00:29:36;;;;;;;5.93;3.40;;;;;;;22.12;76.95;100284.63;5074248;28;20056;-71
2022/08/03 00:32:24;;;;;;;5.63;3.45;;;;;;;22.03;77.00;100272.00;5075070;28;20048;-71
2022/08/03 00:34:53;;;;;;;4.50;3.53;;;;;;;21.99;76.69;100284.19;5075307;28;20131;-71
2022/08/03 00:37:26;;;;;;;5.85;3.30;;;;;;;21.84;77.73;100277.72;5073640;28;20098;-69
2022/08/03 00:40:12;;;;;;;5.82;3.20;;;;;;;21.87;77.34;100288.25;5075124;28;20044;-69
2022/08/03 00:42:52;;;;;;;4.65;3.17;;;;;;;21.85;76.54;100293.00;5075301;28;20519;-70
2022/08/03 00:45:22;;;;;;;4.20;3.10;;;;;;;21.89;76.31;100286.22;5074794;28;20040;-69
2022/08/03 00:47:50;;;;;;;5.90;3.80;;;;;;;21.93;75.18;100282.16;5073538;28;20052;-71
2022/08/03 00:50:21;;;;;;;5.68;3.30;;;;;;;21.86;75.37;100281.97;5074662;28;20040;-71
2022/08/03 00:52:51;;;;;;;4.75;3.08;;;;;;;21.96;74.36;100289.97;5073400;28;20052;-70
2022/08/03 00:55:21;;;;;;;5.35;3.65;;;;;;;21.91;75.10;100292.34;5074853;28;20489;-70
2022/08/03 00:57:50;;;;;;;6.72;3.30;;;;;;;21.90;75.59;100286.03;5074724;28;20048;-70
2022/08/03 01:00:21;;;;;;;4.20;3.10;;;;;;;21.73;76.78;100284.31;5074451;28;20120;-70
2022/08/03 01:02:50;;;;;;;4.70;3.30;;;;;;;21.60;78.50;100298.31;5075028;28;20060;-69
2022/08/03 01:05:19;;;;;;;5.00;3.42;;;;;;;21.49;80.88;100298.59;5074622;28;20071;-69
2022/08/03 01:08:00;;;;;;;4.47;3.30;;;;;;;21.43;81.63;100304.69;5074532;28;20087;-69
2022/08/03 01:10:37;;;;;;;5.53;3.15;;;;;;;21.43;81.21;100294.69;5074393;28;20461;-69
2022/08/03 01:13:17;;;;;;;6.63;3.00;;;;;;;21.40;80.63;100299.56;5074090;28;20048;-71
2022/08/03 01:16:12;;;;;;;5.47;3.17;;;;;;;21.53;79.75;100305.41;5074250;28;20041;-70
2022/08/03 01:18:46;;;;;;;6.32;3.00;;;;;;;21.71;77.23;100308.91;5074314;28;20405;-69
2022/08/03 01:21:24;;;;;;;5.68;3.03;;;;;;;21.74;77.79;100302.28;5074333;28;20051;-69
2022/08/03 01:24:03;;;;;;;4.18;2.90;;;;;;;21.66;77.86;100300.38;5074354;28;20092;-71
2022/08/03 01:26:53;;;;;;;4.95;3.30;;;;;;;21.64;78.04;100305.13;5074198;28;20041;-71
2022/08/03 01:29:44;;;;;;;6.38;3.33;;;;;;;21.75;77.45;100308.56;5074011;28;20092;-70
2022/08/03 01:32:16;;;;;;;5.93;3.25;;;;;;;21.65;78.46;100304.09;5074054;28;20044;-70
2022/08/03 01:35:09;;;;;;;5.20;3.47;;;;;;;21.57;79.45;100301.34;5074139;28;20404;-70
2022/08/03 01:37:42;;;;;;;4.30;3.33;;;;;;;21.55;79.79;100311.53;5074114;28;20053;-70
2022/08/03 01:40:14;;;;;;;5.70;3.20;;;;;;;21.54;80.49;100304.41;5073919;28;20127;-69
2022/08/03 01:42:45;;;;;;;5.68;3.05;;;;;;;21.48;81.68;100307.75;5074139;28;20040;-69
2022/08/03 01:45:17;;;;;;;4.63;3.13;;;;;;;21.34;82.91;100306.50;5073781;28;20397;-70
2022/08/03 01:47:48;;;;;;;6.95;3.60;;;;;;;21.43;83.03;100302.81;5073875;28;20048;-70
2022/08/03 01:50:20;;;;;;;6.18;3.33;;;;;;;21.29;84.04;100302.53;5073458;28;20533;-71
2022/08/03 01:52:51;;;;;;;5.32;3.30;;;;;;;21.33;83.76;100304.78;5073699;28;20040;-70
2022/08/03 01:55:21;;;;;;;7.47;3.42;;;;;;;21.50;82.90;100299.44;5073622;28;20087;-72
2022/08/03 01:57:52;;;;;;;4.55;3.20;;;;;;;21.48;82.85;100296.88;5073775;28;20078;-72
2022/08/03 02:00:36;;;;;;;6.55;3.65;;;;;;;21.38;82.55;100291.59;5073620;28;20047;-75
2022/08/03 02:03:06;;;;;;;5.20;3.33;;;;;;;21.26;83.85;100298.28;5072932;28;20075;-73
2022/08/03 02:05:36;;;;;;;6.85;3.65;;;;;;;21.08;86.91;100289.31;5073644;28;20094;-72
2022/08/03 02:08:07;;;;;;;5.22;3.10;;;;;;;21.09;86.31;100293.75;5073356;28;20040;-73
2022/08/03 02:10:37;;;;;;;7.38;3.72;;;;;;;21.15;86.12;100296.66;5073454;28;20070;-74
2022/08/03 02:13:08;;;;;;;7.15;3.60;;;;;;;21.11;86.29;100294.41;5073195;28;20044;-74
2022/08/03 02:15:38;;;;;;;6.60;3.58;;;;;;;21.13;86.86;100290.56;5073320;28;20050;-74
2022/08/03 02:18:09;;;;;;;5.18;3.88;;;;;;;20.95;88.53;100297.88;5073265;28;20051;-74
2022/08/03 02:20:39;;;;;;;5.00;3.70;;;;;;;20.92;89.62;100294.63;5073445;28;20119;-73
2022/08/03 02:23:08;;;;;;;6.43;3.80;;;;;;;20.95;89.44;100306.03;5073358;28;20557;-73
2022/08/03 02:25:44;;;;;;;4.80;3.75;;;;;;;20.80;91.46;100297.59;5073111;28;20094;-73
2022/08/03 02:28:19;;;;;;;5.10;3.70;;;;;;;20.79;92.18;100300.47;5073204;28;20076;-73
2022/08/03 02:30:53;;;;;;;5.57;3.90;;;;;;;20.68;94.35;100298.00;5073187;28;20046;-73
2022/08/03 02:33:31;;;;;;;6.05;4.20;;;;;;;20.74;94.09;100291.94;5073116;28;20051;-73
2022/08/03 02:36:02;;;;;;;5.93;3.85;;;;;;;20.60;95.80;100306.06;5073185;28;20047;-73
2022/08/03 02:38:33;;;;;;;6.20;3.63;;;;;;;20.68;95.61;100293.44;5072718;28;20063;-73
2022/08/03 02:41:07;;;;;;;6.25;4.07;;;;;;;20.73;94.57;100301.06;5073132;28;20123;-73
2022/08/03 02:43:37;;;;;;;6.95;3.97;;;;;;;20.70;95.79;100307.66;5073156;28;20045;-73
2022/08/03 02:46:32;;;;;;;4.57;3.80;;;;;;;20.40;99.17;100294.47;5072800;28;20041;-73
2022/08/03 02:49:02;;;;;;;7.43;4.22;;;;;;;20.43;100.00;100305.88;5073352;28;20044;-73
2022/08/03 02:51:53;;;;;;;7.20;4.28;;;;;;;20.46;99.56;100305.59;5071715;28;20044;-74
2022/08/03 02:54:24;;;;;;;6.95;4.35;;;;;;;20.40;100.00;100302.63;5073040;28;20047;-74
2022/08/03 02:56:56;;;;;;;8.10;4.80;;;;;;;20.38;100.00;100308.19;5072863;28;20048;-74
2022/08/03 02:59:29;;;;;;;6.82;4.80;;;;;;;20.29;100.00;100306.41;5072909;28;20082;-74
2022/08/03 03:02:00;;;;;;;;;;;;;;;20.16;100.00;100311.31;5073517;28;20041;-74
2022/08/03 03:04:30;;;;;;;7.90;4.88;;;;;;;20.21;100.00;100300.88;5072590;28;19920;-74
2022/08/03 03:07:01;;;;;;;6.55;4.72;;;;;;;20.22;100.00;100308.84;5073133;28;20059;-74
2022/08/03 03:09:33;;;;;;;6.10;4.72;;;;;;;20.19;100.00;100300.19;5072585;28;20059;-74
2022/08/03 03:12:12;;;;;;;6.50;5.00;;;;;;;20.20;100.00;100297.34;5072800;28;20119;-74
2022/08/03 03:14:41;;;;;;;6.05;4.30;;;;;;;20.01;100.00;100300.16;5074029;28;20041;-74
2022/08/03 03:17:12;;;;;;;6.97;5.18;;;;;;;20.09;100.00;100312.94;5076775;28;20040;-74
2022/08/03 03:19:44;;;;;;;6.50;5.00;;;;;;;20.11;100.00;100305.53;5076405;28;20052;-75
2022/08/03 03:22:13;;;;;;;6.30;4.60;;;;;;;20.12;100.00;100301.81;5076865;28;20094;-73
2022/08/03 03:24:44;;;;;;;6.72;4.53;;;;;;;20.08;100.00;100306.69;5076596;28;20044;-72
2022/08/03 03:27:14;;;;;;;6.18;4.68;;;;;;;20.10;100.00;100310.09;5076351;28;20044;-78
2022/08/03 03:29:44;;;;;;;6.57;4.78;;;;;;;20.05;100.00;100311.53;5076370;28;20098;-75
2022/08/03 03:32:14;;;;;;;6.65;4.53;;;;;;;20.11;100.00;100308.22;5076223;28;20127;-71
2022/08/03 03:34:43;;;;;;;6.57;4.70;;;;;;;19.99;100.00;100303.03;5076511;28;20048;-72
2022/08/03 03:37:12;;;;;;;7.13;4.93;;;;;;;19.86;100.00;100310.63;5076259;28;20063;-72
2022/08/03 03:39:41;;;;;;;6.22;4.75;;;;;;;20.00;100.00;100307.44;5076176;28;20044;-72
2022/08/03 03:42:09;;;;;;;8.13;5.20;;;;;;;19.95;100.00;100304.31;5076151;28;20098;-72
2022/08/03 03:44:37;;;;;;;8.57;4.88;;;;;;;20.01;100.00;100305.56;5075833;28;20041;-74
2022/08/03 03:47:06;;;;;;;6.78;4.97;;;;;;;20.11;100.00;100308.22;5076320;28;20068;-72
2022/08/03 03:49:36;;;;;;;6.15;4.40;;;;;;;20.21;100.00;100307.16;5075900;28;20048;-72
2022/08/03 03:52:06;;;;;;;7.15;4.45;;;;;;;20.26;100.00;100310.25;5076111;28;20463;-72
2022/08/03 03:54:40;;;;;;;7.57;4.57;;;;;;;20.15;100.00;100312.31;5075966;28;20044;-74
2022/08/03 03:57:10;;;;;;;7.63;4.97;;;;;;;20.17;100.00;100315.72;5075760;28;20036;-74
2022/08/03 03:59:42;;;;;;;6.97;4.75;;;;;;;20.29;100.00;100309.09;5076183;28;20047;-74
2022/08/03 04:02:11;;;;;;;7.22;4.95;;;;;;;20.23;100.00;100315.13;5075958;28;20119;-74
2022/08/03 04:13:08;;;;;;;6.82;4.63;;;;;;;22.20;93.61;100311.81;5074526;28;20489;-75
2022/08/03 04:15:39;;;;;;;8.30;4.60;;;;;;;22.59;90.83;100323.97;5075347;28;20507;-75
2022/08/03 04:18:11;;;;;;;7.07;4.60;;;;;;;23.25;85.00;100323.78;5074349;28;20049;-75
2022/08/03 04:20:45;;;;;;;8.52;4.43;;;;;;;23.93;79.62;100327.88;5075248;28;20062;-73
2022/08/03 04:23:18;;;;;;;6.15;4.50;;;;;;;23.84;79.46;100327.09;5074300;28;20135;-72
2022/08/03 04:25:51;;;;;;;7.57;4.22;;;;;;;24.24;76.13;100334.22;5075003;28;20086;-73
2022/08/03 04:28:22;;;;;;;7.22;4.60;;;;;;;23.49;79.82;100332.94;5074946;28;20068;-74
2022/08/03 04:30:59;;;;;;;7.75;4.65;;;;;;;23.21;82.11;100330.59;5075205;28;20482;-74
2022/08/03 04:33:31;;;;;;;6.60;4.60;;;;;;;22.90;85.04;100335.06;5075044;28;20051;-74
2022/08/03 04:36:04;;;;;;;7.28;4.60;;;;;;;22.85;85.63;100332.81;5075347;28;20037;-74
2022/08/03 04:38:37;;;;;;;7.75;4.80;;;;;;;23.18;83.93;100336.41;5074928;28;20421;-74
2022/08/03 04:41:08;;;;;;;6.80;5.03;;;;;;;23.10;83.14;100339.97;5074763;28;20049;-74
2022/08/03 04:43:40;;;;;;;8.75;4.95;;;;;;;23.36;81.31;100345.22;5074744;28;20048;-74
2022/08/03 04:46:10;;;;;;;7.10;5.38;;;;;;;23.43;79.90;100340.78;5074888;28;20055;-72
2022/08/03 04:48:39;;;;;;;8.98;5.30;;;;;;;23.69;80.88;100342.44;5074661;28;20044;-74
2022/08/03 04:51:13;;;;;;;9.02;5.50;;;;;;;24.23;76.41;100350.75;5075033;28;20041;-74
2022/08/03 04:53:43;;;;;;;6.55;5.00;;;;;;;24.52;73.53;100348.22;5074759;28;20040;-76
2022/08/03 04:56:11;;;;;;;8.35;5.07;;;;;;;24.64;73.38;100351.38;5074920;28;20040;-70
2022/08/03 04:58:39;;;;;;;7.88;4.95;;;;;;;25.56;67.53;100349.41;5074702;28;20448;-71
2022/08/03 05:01:07;;;;;;;9.07;4.80;;;;;;;26.02;64.56;100360.19;5074629;28;20405;-71
2022/08/03 05:03:36;;;;;;;6.45;5.03;;;;;;;26.12;63.77;100363.47;5074288;28;20051;-71
2022/08/03 05:06:04;;;;;;;7.38;4.95;;;;;;;25.58;66.04;100369.22;5074470;28;20072;-70
2022/08/03 05:08:40;;;;;;;7.85;4.60;;;;;;;25.42;67.39;100366.63;5072845;28;20515;-72
2022/08/03 05:11:14;;;;;;;7.05;4.70;;;;;;;25.84;64.55;100365.19;5073042;28;20508;-75
2022/08/03 05:13:42;;;;;;;6.07;4.85;;;;;;;25.27;66.66;100368.47;5074017;28;20044;-73
2022/08/03 05:16:12;;;;;;;7.20;4.15;;;;;;;25.83;64.67;100369.81;5074639;28;20056;-74
2022/08/03 05:18:41;;;;;;;6.60;4.45;;;;;;;26.25;62.32;100365.53;5073784;28;20052;-70
2022/08/03 05:21:09;;;;;;;6.47;4.53;;;;;;;26.27;61.55;100371.66;5074319;28;20400;-71
2022/08/03 05:23:37;;;;;;;6.45;4.30;;;;;;;26.51;60.34;100368.59;5073945;28;20094;-73
2022/08/03 05:26:07;;;;;;;5.85;4.43;;;;;;;26.90;58.81;100378.28;5072872;28;20056;-72
2022/08/03 05:28:35;;;;;;;6.22;3.97;;;;;;;26.92;58.93;100375.34;5073815;28;20048;-72
2022/08/03 05:31:03;;;;;;;8.20;4.38;;;;;;;27.38;56.56;100376.66;5073874;28;20053;-72
2022/08/03 05:33:31;;;;;;;6.97;4.80;;;;;;;27.44;55.93;100380.50;5073997;28;20076;-70
2022/08/03 05:35:59;;;;;;;6.97;4.93;;;;;;;27.20;57.02;100379.00;5073797;28;20045;-71
2022/08/03 05:38:31;;;;;;;7.45;4.18;;;;;;;27.88;54.27;100380.19;5073606;28;20076;-71
2022/08/03 05:41:03;;;;;;;6.68;5.00;;;;;;;27.75;55.72;100380.09;5073869;28;20045;-72
2022/08/03 05:43:53;;;;;;;6.38;4.70;;;;;;;28.38;52.41;100383.66;5072403;28;20546;-74
2022/08/03 05:46:22;;;;;;;7.70;4.40;;;;;;;28.44;52.68;100388.28;5072450;28;20063;-77
2022/08/03 05:48:50;;;;;;;5.95;4.40;;;;;;;28.36;52.44;100385.72;5073724;28;20048;-70
2022/08/03 05:51:19;;;;;;;6.03;4.35;;;;;;;28.45;52.74;100384.50;5073788;28;20066;-74
2022/08/03 05:53:47;;;;;;;7.90;4.50;;;;;;;27.97;53.25;100388.25;5073495;28;20489;-75
2022/08/03 05:56:15;;;;;;;9.32;4.35;;;;;;;28.07;53.58;100395.03;5072462;28;20127;-75
2022/08/03 05:58:45;;;;;;;5.97;4.18;;;;;;;28.39;53.14;100388.09;5073177;28;20078;-76
2022/08/03 06:01:16;;;;;;;6.40;4.72;;;;;;;29.49;49.44;100399.72;5072158;28;20497;-73
2022/08/03 06:03:45;;;;;;;7.97;4.30;;;;;;;29.37;49.60;100396.75;5072012;28;20055;-72
2022/08/03 06:06:13;;;;;;;6.43;3.90;;;;;;;29.49;48.46;100400.56;5073255;28;20533;-77
2022/08/03 06:08:43;;;;;;;6.45;4.18;;;;;;;29.76;48.10;100400.56;5073072;28;20114;-72
2022/08/03 06:11:11;;;;;;;6.05;4.10;;;;;;;30.70;45.19;100389.91;5072209;28;20058;-72
2022/08/03 06:13:40;;;;;;;6.85;4.18;;;;;;;29.54;47.97;100406.28;5073249;28;20111;-72
2022/08/03 06:16:08;;;;;;;6.35;4.07;;;;;;;30.06;45.96;100403.66;5073254;28;20045;-72
2022/08/03 06:18:39;;;;;;;6.40;4.32;;;;;;;29.99;46.35;100397.31;5072936;28;20097;-73
2022/08/03 06:21:09;;;;;;;8.05;4.10;;;;;;;30.01;47.04;100406.19;5073356;28;20044;-71
2022/08/03 06:23:44;;;;;;;8.18;4.60;;;;;;;30.95;44.28;100397.38;5073136;28;20051;-72
2022/08/03 06:26:22;;;;;;;8.30;4.63;;;;;;;31.28;43.48;100403.53;5073391;28;20044;-72
2022/08/03 06:28:50;;;;;;;8.77;4.15;;;;;;;31.16;43.78;100402.50;5073018;28;20044;-73
2022/08/03 06:31:22;;;;;;;6.68;3.85;;;;;;;31.07;43.63;100401.09;5071690;28;20052;-72
2022/08/03 06:33:52;;;;;;;6.95;4.35;;;;;;;31.56;42.04;100399.50;5071903;28;20060;-71
2022/08/03 06:36:40;;;;;;;6.70;4.53;;;;;;;30.56;44.11;100410.28;5072724;28;20111;-72
2022/08/03 06:39:08;;;;;;;8.38;4.60;;;;;;;31.14;43.62;100404.66;5071830;28;20061;-73
2022/08/03 06:41:37;;;;;;;7.68;4.63;;;;;;;31.37;43.19;100406.03;5072774;28;20127;-70
2022/08/03 06:44:12;;;;;;;7.10;4.32;;;;;;;31.58;42.23;100403.69;5073114;28;20048;-72
2022/08/03 06:46:41;;;;;;;5.63;4.38;;;;;;;31.82;41.62;100402.00;5072563;28;20045;-70
2022/08/03 06:49:10;;;;;;;7.32;4.75;;;;;;;32.46;39.03;100405.34;5070937;28;20049;-72
2022/08/03 06:51:39;;;;;;;7.25;4.88;;;;;;;33.00;37.99;100401.63;5072073;28;20143;-72
2022/08/03 06:54:27;;;;;;;6.32;4.88;;;;;;;31.84;40.34;100402.63;5072014;28;20374;-71
2022/08/03 06:56:59;;;;;;;;;;;;;;;30.84;41.97;100411.84;5072161;28;20049;-72
2022/08/03 06:59:28;;;;;;;6.90;5.00;;;;;;;30.56;42.45;100413.03;5070962;28;19963;-72
2022/08/03 07:02:17;;;;;;;7.15;5.10;;;;;;;31.15;41.60;100405.50;5071682;28;20052;-72
2022/08/03 07:04:47;;;;;;;7.93;5.43;;;;;;;31.32;40.84;100413.03;5072525;28;20504;-72
2022/08/03 07:07:16;;;;;;;6.85;5.45;;;;;;;30.23;43.70;100399.41;5072626;28;20045;-72
2022/08/03 07:09:45;;;;;;;10.10;5.10;;;;;;;29.50;46.12;100415.16;5071285;28;20102;-72
2022/08/03 07:12:26;;;;;;;6.97;5.20;;;;;;;29.22;46.83;100410.69;5072600;28;20481;-74
2022/08/03 07:14:54;;;;;;;7.50;5.55;;;;;;;28.82;47.65;100409.72;5072366;28;20045;-73
2022/08/03 07:17:28;;;;;;;7.07;5.72;;;;;;;28.47;49.46;100404.38;5072689;28;20050;-74
2022/08/03 07:20:00;;;;;;;6.72;5.75;;;;;;;28.82;48.43;100415.22;5071501;28;20045;-72
2022/08/03 07:22:28;;;;;;;8.40;6.07;;;;;;;28.72;48.92;100407.38;5072647;28;20071;-74
2022/08/03 07:24:57;;;;;;;7.82;5.97;;;;;;;27.97;50.00;100412.91;5072538;28;20044;-73
2022/08/03 07:27:27;;;;;;;7.80;5.93;;;;;;;28.12;49.95;100410.91;5072606;28;20058;-72
2022/08/03 07:29:56;;;;;;;8.63;6.20;;;;;;;28.04;49.99;100402.84;5072637;28;20047;-73
2022/08/03 07:32:25;;;;;;;7.97;6.40;;;;;;;28.05;51.10;100410.00;5072537;28;20050;-74
2022/08/03 07:34:53;;;;;;;9.52;5.97;;;;;;;28.33;50.63;100408.09;5072573;28;20041;-72
2022/08/03 07:37:29;;;;;;;11.35;6.57;;;;;;;28.52;48.33;100412.81;5071937;28;20401;-73
2022/08/03 07:39:58;;;;;;;7.80;6.70;;;;;;;28.65;47.43;100406.50;5072337;28;20404;-74
2022/08/03 07:42:27;;;;;;;9.65;6.10;;;;;;;28.44;47.14;100404.75;5072276;28;20044;-74
2022/08/03 07:44:55;;;;;;;9.20;6.60;;;;;;;28.16;47.65;100407.53;5072716;28;20135;-73
2022/08/03 07:47:25;;;;;;;8.02;6.50;;;;;;;27.83;47.98;100401.88;5072435;28;20440;-74
2022/08/03 07:50:05;;;;;;;8.13;7.07;;;;;;;27.99;48.12;100402.59;5071392;28;20052;-74
2022/08/03 07:52:50;;;;;;;8.98;6.68;;;;;;;28.34;47.66;100404.28;5072042;28;20060;-74
2022/08/03 07:55:20;;;;;;;10.43;6.95;;;;;;;28.46;47.03;100402.66;5072408;28;20052;-73
2022/08/03 07:57:59;;;;;;;10.00;6.28;;;;;;;28.51;46.80;100399.31;5072065;28;20068;-74
2022/08/03 08:00:28;;;;;;;8.10;6.53;;;;;;;28.23;47.54;100404.84;5072429;28;20482;-74
2022/08/03 08:02:56;;;;;;;7.38;6.57;;;;;;;27.85;48.14;100397.03;5074901;28;20044;-74
2022/08/03 08:05:25;;;;;;;7.38;6.57;;;;;;;27.46;49.22;100410.41;5075635;28;20051;-73
2022/08/03 08:07:55;;;;;;;7.50;6.70;;;;;;;27.63;49.18;100401.72;5075434;28;20044;-73
2022/08/03 08:10:23;;;;;;;7.85;6.55;;;;;;;27.54;49.52;100407.53;5075880;28;20052;-73
2022/08/03 08:12:51;;;;;;;9.52;6.78;;;;;;;27.55;49.92;100409.22;5075336;28;20044;-73
2022/08/03 08:15:20;;;;;;;7.13;6.43;;;;;;;27.44;49.51;100412.50;5074124;28;20053;-73
2022/08/03 08:17:49;;;;;;;7.00;6.15;;;;;;;27.58;48.98;100409.66;5075280;28;20136;-73
2022/08/03 08:20:20;;;;;;;8.57;6.80;;;;;;;27.71;49.01;100403.50;5074768;28;20094;-74
2022/08/03 08:23:00;;;;;;;8.73;6.57;;;;;;;27.56;48.27;100416.41;5075680;28;20120;-74
2022/08/03 08:25:31;;;;;;;7.85;6.13;;;;;;;27.51;48.60;100403.31;5075598;28;20052;-73
2022/08/03 08:28:02;;;;;;;8.63;6.15;;;;;;;27.50;48.34;100408.97;5075462;28;20051;-74
2022/08/03 08:30:50;;;;;;;6.90;5.50;;;;;;;27.46;49.00;100403.03;5073858;28;20129;-74
2022/08/03 08:33:19;;;;;;;8.68;6.20;;;;;;;27.59;48.11;100399.56;5075272;28;20059;-74
2022/08/03 08:35:52;;;;;;;10.32;6.50;;;;;;;27.54;48.51;100404.81;5073529;28;20098;-74
2022/08/03 08:38:23;;;;;;;7.30;6.00;;;;;;;27.68;47.72;100403.88;5075305;28;20098;-71
2022/08/03 08:40:51;;;;;;;6.82;5.95;;;;;;;27.58;49.00;100400.59;5073409;28;20622;-74
2022/08/03 08:43:19;;;;;;;7.38;6.65;;;;;;;27.76;48.94;100395.50;5075071;28;20040;-74
2022/08/03 08:45:49;;;;;;;7.70;6.10;;;;;;;28.01;47.93;100404.09;5074760;28;20105;-74
2022/08/03 08:48:22;;;;;;;8.27;6.30;;;;;;;28.19;47.30;100401.69;5073970;28;20135;-74
2022/08/03 08:50:52;;;;;;;;;;;;;;;28.17;46.61;100398.25;5073972;28;20486;-74
2022/08/03 08:53:23;;;;;;;6.43;5.63;;;;;;;28.21;46.17;100390.50;5075076;28;19943;-73
2022/08/03 08:55:58;;;;;;;7.97;5.38;;;;;;;27.82;45.47;100394.72;5074577;28;20481;-74
2022/08/03 08:58:30;;;;;;;7.55;6.07;;;;;;;27.91;46.54;100396.25;5074595;28;20119;-74
2022/08/03 09:00:59;;;;;;;7.15;5.30;;;;;;;28.15;45.31;100394.03;5073301;28;20455;-74
2022/08/03 09:03:27;;;;;;;6.68;5.68;;;;;;;28.33;44.90;100390.78;5073156;28;20053;-74
2022/08/03 09:06:00;;;;;;;6.78;5.60;;;;;;;28.43;44.62;100394.84;5073167;28;20049;-73
2022/08/03 09:08:32;;;;;;;7.10;6.17;;;;;;;28.16;45.80;100384.75;5074644;28;20044;-74
2022/08/03 09:11:00;;;;;;;8.98;5.70;;;;;;;28.37;46.14;100386.56;5074699;28;20277;-74
2022/08/03 09:13:29;;;;;;;7.13;5.45;;;;;;;28.38;45.35;100383.66;5072697;28;20456;-74
2022/08/03 09:16:10;;;;;;;6.65;5.30;;;;;;;28.55;46.32;100381.38;5072695;28;20040;-74
2022/08/03 09:18:39;;;;;;;10.15;6.03;;;;;;;28.77;45.88;100382.94;5074298;28;20044;-74
2022/08/03 09:21:16;;;;;;;7.75;5.18;;;;;;;28.59;45.54;100381.81;5074227;28;20123;-74
2022/08/03 09:24:05;;;;;;;8.77;5.75;;;;;;;28.80;45.00;100376.16;5074180;28;20043;-73
2022/08/03 09:26:40;;;;;;;5.97;5.25;;;;;;;28.20;45.29;100380.59;5073936;28;20048;-74
2022/08/03 09:29:10;;;;;;;8.25;6.05;;;;;;;28.16;45.64;100380.13;5073047;28;20072;-74
2022/08/03 09:31:44;;;;;;;8.13;6.05;;;;;;;28.27;45.78;100370.47;5072462;28;20494;-74
2022/08/03 09:34:16;;;;;;;6.80;5.35;;;;;;;28.52;45.23;100373.56;5074067;28;20379;-74
2022/08/03 09:36:46;;;;;;;8.30;5.85;;;;;;;28.34;46.11;100381.50;5073828;28;20052;-74
2022/08/03 09:39:17;;;;;;;8.20;5.75;;;;;;;28.43;45.37;100370.16;5072991;28;20125;-74
2022/08/03 09:41:46;;;;;;;7.00;5.90;;;;;;;28.55;45.31;100375.03;5072590;28;20049;-73
2022/08/03 09:44:15;;;;;;;7.20;5.22;;;;;;;28.76;44.77;100366.66;5073688;28;20048;-74
2022/08/03 09:46:55;;;;;;;6.13;5.18;;;;;;;28.92;43.78;100368.19;5073566;28;20044;-74
2022/08/03 09:49:24;;;;;;;6.40;4.72;;;;;;;28.93;42.89;100367.97;5073707;28;20050;-74
2022/08/03 09:51:53;;;;;;;6.82;5.05;;;;;;;28.91;42.60;100361.00;5072210;28;20044;-74
2022/08/03 09:54:43;;;;;;;7.18;4.60;;;;;;;29.01;42.72;100367.78;5072459;28;20055;-74
2022/08/03 09:57:21;;;;;;;7.00;4.95;;;;;;;28.99;42.18;100355.31;5073884;28;20090;-73
2022/08/03 09:59:51;;;;;;;6.95;4.82;;;;;;;29.06;42.46;100367.16;5072225;28;20044;-74
2022/08/03 10:02:33;;;;;;;7.38;4.40;;;;;;;29.39;41.82;100364.41;5073444;28;20036;-74
2022/08/03 10:05:02;;;;;;;7.07;4.90;;;;;;;29.30;41.55;100360.19;5073675;28;20165;-74
2022/08/03 10:07:30;;;;;;;6.45;4.72;;;;;;;29.26;41.33;100353.44;5073746;28;20037;-73
2022/08/03 10:10:02;;;;;;;6.05;4.90;;;;;;;29.46;41.41;100348.78;5073147;28;20045;-74
2022/08/03 10:12:52;;;;;;;6.60;5.13;;;;;;;29.19;42.23;100345.19;5071936;28;20053;-74
2022/08/03 10:15:20;;;;;;;7.32;4.80;;;;;;;29.38;41.52;100348.97;5072042;28;20058;-73
2022/08/03 10:18:09;;;;;;;7.43;5.20;;;;;;;29.45;41.53;100332.50;5073340;28;20037;-72
2022/08/03 10:20:41;;;;;;;8.25;5.40;;;;;;;29.68;40.86;100340.31;5071721;28;20109;-76
2022/08/03 10:23:11;;;;;;;5.70;4.57;;;;;;;29.84;40.34;100339.84;5072072;28;20048;-74
2022/08/03 10:25:42;;;;;;;6.18;4.88;;;;;;;29.40;40.81;100332.28;5072170;28;20033;-74
2022/08/03 10:28:14;;;;;;;7.10;5.20;;;;;;;28.93;42.19;100345.16;5073278;28;20051;-74
2022/08/03 10:30:48;;;;;;;7.15;5.03;;;;;;;29.07;41.71;100333.16;5073094;28;20125;-74
2022/08/03 10:33:19;;;;;;;8.85;4.95;;;;;;;29.11;41.92;100342.66;5073104;28;20110;-73
2022/08/03 10:36:08;;;;;;;7.30;4.88;;;;;;;29.27;41.89;100328.50;5073333;28;20459;-74
2022/08/03 10:38:40;;;;;;;6.80;5.07;;;;;;;29.67;42.09;100338.63;5071645;28;20057;-74
2022/08/03 10:41:10;;;;;;;6.10;4.83;;;;;;;29.73;40.92;100333.13;5072024;28;20070;-74
2022/08/03 10:43:47;;;;;;;7.15;4.85;;;;;;;29.71;40.71;100323.38;5072673;28;20459;-76
2022/08/03 10:46:19;;;;;;;6.70;5.28;;;;;;;29.55;41.62;100330.19;5073170;28;20040;-74
2022/08/03 10:48:51;;;;;;;6.07;4.78;;;;;;;29.23;41.49;100326.38;5071568;28;20106;-74
2022/08/03 10:51:20;;;;;;;6.77;4.83;;;;;;;29.47;40.93;100317.47;5072821;28;20068;-73
2022/08/03 10:53:48;;;;;;;6.03;4.75;;;;;;;29.49;40.54;100315.38;5072610;28;20313;-74
2022/08/03 11:00:02;;;;;;;7.15;5.13;;;;;;;29.65;40.19;100319.59;5071390;28;20063;-74
2022/08/03 11:03:07;;;;;;;6.82;4.80;;;;;;;29.78;40.26;100313.22;5072775;28;20041;-74
2022/08/03 11:05:38;;;;;;;7.65;5.00;;;;;;;29.85;38.51;100308.53;5071646;28;20413;-73
2022/08/03 11:08:22;;;;;;;5.75;4.60;;;;;;;29.60;39.47;100311.97;5073085;28;20098;-74
2022/08/03 11:10:51;;;;;;;11.18;4.80;;;;;;;29.16;39.92;100304.41;5072530;28;20512;-74
2022/08/03 11:13:22;;;;;;;5.97;4.72;;;;;;;29.03;40.94;100307.16;5071324;28;20079;-74
2022/08/03 11:15:54;;;;;;;4.63;4.07;;;;;;;29.22;40.75;100305.47;5072412;28;20033;-74
2022/08/03 11:18:28;;;;;;;7.50;4.60;;;;;;;29.45;40.38;100297.63;5072987;28;20040;-73
2022/08/03 11:20:58;;;;;;;6.03;4.18;;;;;;;29.81;39.30;100293.53;5072326;28;20166;-74
2022/08/03 11:23:44;;;;;;;8.73;4.72;;;;;;;30.03;38.06;100289.44;5071350;28;20048;-74
2022/08/03 11:26:33;;;;;;;6.10;4.28;;;;;;;29.77;38.44;100284.03;5072751;28;20052;-74
2022/08/03 11:29:29;;;;;;;6.35;4.25;;;;;;;29.97;38.22;100282.06;5071202;28;20413;-74
2022/08/03 11:31:57;;;;;;;4.68;3.67;;;;;;;29.82;38.13;100281.47;5071078;28;20059;-74
2022/08/03 11:34:25;;;;;;;6.03;4.00;;;;;;;29.76;38.58;100287.84;5071250;28;20106;-74
2022/08/03 11:37:22;;;;;;;5.13;4.07;;;;;;;29.68;38.77;100277.09;5074910;28;20055;-74
2022/08/03 11:39:55;;;;;;;5.95;4.05;;;;;;;29.83;37.97;100273.03;5075991;28;20043;-74
2022/08/03 11:42:49;;;;;;;6.47;4.25;;;;;;;29.83;37.89;100275.78;5075827;28;20040;-74
2022/08/03 11:45:19;;;;;;;6.85;4.30;;;;;;;29.81;37.80;100279.78;5076237;28;20051;-74
2022/08/03 11:47:49;;;;;;;5.32;3.92;;;;;;;29.73;37.36;100280.03;5074545;28;20573;-74
2022/08/03 11:50:20;;;;;;;6.35;3.65;;;;;;;29.91;37.12;100263.66;5075009;28;20052;-74
2022/08/03 11:52:49;;;;;;;5.03;3.95;;;;;;;29.95;36.64;100270.44;5075763;28;20048;-74
2022/08/03 11:55:20;;;;;;;5.18;3.75;;;;;;;29.91;37.43;100272.75;5076155;28;20064;-74
2022/08/03 11:57:49;;;;;;;7.88;4.13;;;;;;;29.96;37.48;100261.13;5074661;28;20048;-74
2022/08/03 12:00:39;;;;;;;5.78;3.65;;;;;;;30.09;37.34;100271.22;5075877;28;20504;-74
2022/08/03 12:03:09;;;;;;;4.90;3.65;;;;;;;30.33;36.30;100262.22;5074376;28;20051;-74